createdAt,value
2018-06-02T00:00:30.477Z,5.90
2018-06-02T00:02:56.657Z,5.53
2018-06-02T00:05:22.843Z,5.73
2018-06-02T00:07:49.046Z,5.90
2018-06-02T00:10:15.501Z,5.27
2018-06-02T00:12:41.687Z,5.30
2018-06-02T00:15:07.937Z,5.07
2018-06-02T00:17:34.141Z,5.50
2018-06-02T00:20:00.399Z,5.33
2018-06-02T00:22:26.736Z,5.30
2018-06-02T00:24:52.973Z,5.40
2018-06-02T00:27:19.338Z,5.20
2018-06-02T00:29:46.360Z,5.30
2018-06-02T00:32:12.711Z,5.43
2018-06-02T00:34:39.794Z,5.20
2018-06-02T00:37:06.070Z,5.63
2018-06-02T00:39:33.144Z,4.73
2018-06-02T00:41:59.412Z,5.40
2018-06-02T00:44:25.814Z,5.40
2018-06-02T00:46:52.882Z,5.33
2018-06-02T00:49:19.168Z,5.03
2018-06-02T00:51:45.425Z,5.30
2018-06-02T00:54:11.716Z,5.40
2018-06-02T00:56:37.958Z,5.33
2018-06-02T00:59:04.224Z,5.03
2018-06-02T01:01:30.533Z,5.33
2018-06-02T01:03:56.782Z,5.10
2018-06-02T01:06:23.059Z,5.30
2018-06-02T01:08:49.380Z,4.60
2018-06-02T01:11:15.694Z,4.80
2018-06-02T01:13:42.036Z,5.00
2018-06-02T01:16:09.038Z,5.33
2018-06-02T01:18:35.317Z,4.93
2018-06-02T01:21:01.565Z,4.67
2018-06-02T01:23:27.799Z,4.97
2018-06-02T01:25:54.050Z,5.20
2018-06-02T01:28:21.122Z,4.60
2018-06-02T01:30:47.837Z,4.87
2018-06-02T01:33:14.186Z,4.63
2018-06-02T01:35:40.508Z,5.40
2018-06-02T01:38:06.790Z,5.00
2018-06-02T01:40:33.791Z,4.80
2018-06-02T01:43:00.075Z,4.90
2018-06-02T01:45:26.333Z,5.40
2018-06-02T01:47:52.631Z,5.47
2018-06-02T01:50:18.922Z,5.30
2018-06-02T01:52:45.916Z,5.13
2018-06-02T01:55:12.146Z,4.97
2018-06-02T01:57:38.465Z,5.00
2018-06-02T02:00:05.447Z,4.77
2018-06-02T02:02:31.719Z,4.97
2018-06-02T02:04:58.115Z,5.10
2018-06-02T02:07:24.394Z,5.33
2018-06-02T02:09:50.662Z,5.67
2018-06-02T02:12:16.944Z,5.33
2018-06-02T02:14:43.922Z,5.17
2018-06-02T02:17:10.237Z,5.70
2018-06-02T02:19:37.235Z,5.03
2018-06-02T02:22:03.524Z,5.70
2018-06-02T02:24:29.830Z,5.70
2018-06-02T02:26:56.074Z,5.10
2018-06-02T02:29:22.414Z,5.13
2018-06-02T02:31:48.758Z,5.20
2018-06-02T02:34:14.982Z,4.87
2018-06-02T02:36:41.289Z,5.83
2018-06-02T02:39:08.272Z,5.17
2018-06-02T02:41:34.598Z,5.17
2018-06-02T02:44:01.620Z,5.50
2018-06-02T02:46:27.893Z,5.53
2018-06-02T02:48:54.829Z,5.40
2018-06-02T02:51:21.121Z,5.60
2018-06-02T02:53:47.419Z,5.43
2018-06-02T02:56:13.735Z,5.73
2018-06-02T02:58:40.029Z,6.10
2018-06-02T03:01:07.096Z,5.67
2018-06-02T03:03:34.099Z,5.50
2018-06-02T03:06:00.437Z,5.47
2018-06-02T03:08:26.650Z,5.87
2018-06-02T03:10:52.907Z,5.57
2018-06-02T03:13:19.255Z,5.77
2018-06-02T03:15:45.504Z,5.90
2018-06-02T03:18:11.799Z,5.83
2018-06-02T03:20:38.837Z,6.23
2018-06-02T03:23:05.141Z,4.90
2018-06-02T03:25:31.420Z,6.23
2018-06-02T03:27:57.682Z,5.60
2018-06-02T03:30:24.740Z,6.50
2018-06-02T03:32:51.047Z,6.47
2018-06-02T03:35:17.417Z,6.07
2018-06-02T03:37:43.799Z,6.33
2018-06-02T03:40:10.128Z,6.77
2018-06-02T03:42:36.484Z,6.70
2018-06-02T03:45:02.756Z,6.30
2018-06-02T03:47:29.014Z,6.30
2018-06-02T03:49:55.336Z,6.07
2018-06-02T03:52:21.670Z,6.50
2018-06-02T03:54:47.920Z,5.90
2018-06-02T03:57:14.169Z,6.20
2018-06-02T03:59:40.446Z,6.47
2018-06-02T04:02:07.512Z,6.23
2018-06-02T04:04:34.608Z,6.67
2018-06-02T04:07:00.876Z,6.37
2018-06-02T04:09:27.158Z,5.73
2018-06-02T04:11:54.352Z,5.37
2018-06-02T04:14:20.704Z,6.20
2018-06-02T04:16:46.976Z,6.10
2018-06-02T04:19:13.383Z,5.97
2018-06-02T04:21:40.408Z,5.97
2018-06-02T04:24:06.651Z,6.33
2018-06-02T04:26:32.976Z,6.30
2018-06-02T04:28:59.331Z,6.57
2018-06-02T04:31:26.407Z,7.13
2018-06-02T04:33:53.498Z,6.60
2018-06-02T04:36:19.779Z,5.90
2018-06-02T04:38:46.163Z,5.70
2018-06-02T04:41:12.665Z,6.27
2018-06-02T04:43:39.717Z,5.87
2018-06-02T04:46:06.138Z,5.57
2018-06-02T04:48:32.432Z,6.13
2018-06-02T04:50:58.762Z,5.70
2018-06-02T04:53:25.052Z,5.60
2018-06-02T04:55:51.341Z,5.47
2018-06-02T04:58:17.742Z,5.00
2018-06-02T05:00:44.008Z,4.77
2018-06-02T05:03:10.340Z,4.57
2018-06-02T05:05:36.595Z,4.50
2018-06-02T05:08:02.892Z,4.80
2018-06-02T05:10:29.192Z,4.57
2018-06-02T05:12:55.501Z,3.67
2018-06-02T05:15:21.768Z,4.27
2018-06-02T05:17:48.095Z,3.63
2018-06-02T05:20:14.368Z,3.73
2018-06-02T05:22:40.657Z,3.47
2018-06-02T05:25:06.955Z,3.60
2018-06-02T05:27:33.221Z,3.20
2018-06-02T05:30:00.279Z,3.50
2018-06-02T05:32:27.345Z,3.50
2018-06-02T05:34:54.487Z,3.40
2018-06-02T05:37:20.807Z,3.50
2018-06-02T05:39:51.448Z,3.97
2018-06-02T05:42:18.479Z,3.70
2018-06-02T05:44:44.829Z,3.67
2018-06-02T05:47:11.105Z,4.07
2018-06-02T05:49:37.523Z,3.90
2018-06-02T05:52:03.789Z,3.83
2018-06-02T05:54:30.069Z,4.23
2018-06-02T05:56:57.088Z,3.90
2018-06-02T05:59:23.386Z,3.80
2018-06-02T06:01:49.664Z,4.77
2018-06-02T06:04:16.012Z,4.67
2018-06-02T06:06:42.273Z,3.70
2018-06-02T06:09:08.510Z,3.43
2018-06-02T06:11:34.818Z,3.73
2018-06-02T06:14:01.096Z,3.40
2018-06-02T06:16:27.327Z,3.50
2018-06-02T06:18:53.620Z,4.60
2018-06-02T06:21:19.971Z,2.83
2018-06-02T06:23:46.252Z,3.90
2018-06-02T06:26:13.319Z,2.97
2018-06-02T06:28:39.538Z,3.03
2018-06-02T06:31:05.792Z,3.63
2018-06-02T06:33:32.090Z,3.00
2018-06-02T06:35:58.348Z,5.03
2018-06-02T06:38:24.647Z,3.30
2018-06-02T06:40:51.796Z,2.70
2018-06-02T06:43:18.175Z,5.70
2018-06-02T06:45:44.523Z,5.37
2018-06-02T06:48:11.608Z,3.07
2018-06-02T06:50:37.945Z,2.67
2018-06-02T06:53:04.370Z,2.73
2018-06-02T06:55:30.711Z,5.27
2018-06-02T06:57:56.968Z,3.00
2018-06-02T07:00:23.279Z,4.13
2018-06-02T07:02:49.707Z,3.53
2018-06-02T07:05:16.058Z,2.80
2018-06-02T07:07:42.415Z,2.70
2018-06-02T07:10:09.400Z,3.60
2018-06-02T07:12:35.666Z,3.00
2018-06-02T07:15:01.936Z,4.17
2018-06-02T07:17:28.138Z,2.50
2018-06-02T07:19:54.479Z,2.70
2018-06-02T07:22:20.721Z,2.33
2018-06-02T07:24:47.077Z,2.80
2018-06-02T07:27:13.339Z,3.37
2018-06-02T07:29:39.649Z,2.70
2018-06-02T07:32:05.928Z,3.73
2018-06-02T07:34:32.280Z,2.70
2018-06-02T07:36:58.521Z,2.43
2018-06-02T07:39:24.783Z,2.97
2018-06-02T07:41:51.800Z,2.70
2018-06-02T07:44:18.076Z,2.83
2018-06-02T07:46:44.328Z,3.23
2018-06-02T07:49:10.559Z,2.67
2018-06-02T07:51:36.827Z,2.77
2018-06-02T07:54:03.108Z,3.00
2018-06-02T07:56:29.440Z,2.73
2018-06-02T07:58:55.893Z,3.00
2018-06-02T08:01:22.931Z,3.17
2018-06-02T08:03:49.172Z,2.90
2018-06-02T08:06:15.510Z,2.80
2018-06-02T08:08:41.793Z,2.70
2018-06-02T08:11:08.198Z,2.83
2018-06-02T08:13:34.492Z,2.83
2018-06-02T08:16:00.784Z,2.60
2018-06-02T08:18:27.068Z,2.90
2018-06-02T08:20:53.413Z,3.30
2018-06-02T08:23:19.743Z,3.30
2018-06-02T08:25:46.085Z,3.10
2018-06-02T08:28:12.449Z,3.30
2018-06-02T08:30:39.512Z,3.60
2018-06-02T08:33:05.784Z,3.10
2018-06-02T08:35:32.176Z,3.53
2018-06-02T08:37:58.442Z,3.40
2018-06-02T08:40:24.746Z,3.73
2018-06-02T08:42:51.058Z,3.70
2018-06-02T08:45:17.326Z,3.03
2018-06-02T08:47:43.610Z,4.07
2018-06-02T08:50:09.780Z,3.73
2018-06-02T08:52:36.685Z,3.57
2018-06-02T08:55:02.915Z,3.00
2018-06-02T08:57:29.138Z,3.40
2018-06-02T08:59:55.317Z,3.43
2018-06-02T09:02:21.512Z,3.37
2018-06-02T09:04:47.782Z,3.60
2018-06-02T09:07:13.987Z,3.20
2018-06-02T09:09:40.899Z,3.43
2018-06-02T09:12:07.056Z,3.30
2018-06-02T09:14:33.352Z,3.40
2018-06-02T09:16:59.556Z,3.33
2018-06-02T09:19:26.503Z,3.17
2018-06-02T09:21:53.440Z,3.40
2018-06-02T09:24:19.735Z,2.93
2018-06-02T09:26:45.897Z,3.37
2018-06-02T09:29:12.903Z,3.27
2018-06-02T09:31:39.865Z,3.40
2018-06-02T09:34:06.883Z,3.53
2018-06-02T09:36:33.031Z,3.70
2018-06-02T09:38:59.228Z,3.53
2018-06-02T09:41:26.646Z,3.77
2018-06-02T09:43:53.413Z,3.87
2018-06-02T09:46:20.482Z,3.97
2018-06-02T09:48:49.286Z,3.80
2018-06-02T09:51:15.652Z,3.90
2018-06-02T09:53:44.914Z,4.40
2018-06-02T09:56:11.580Z,3.80
2018-06-02T09:58:37.939Z,3.93
2018-06-02T10:01:04.994Z,3.90
2018-06-02T10:03:32.279Z,4.27
2018-06-02T10:05:59.318Z,3.50
2018-06-02T10:08:28.371Z,4.23
2018-06-02T10:10:54.619Z,3.87
2018-06-02T10:13:21.630Z,3.77
2018-06-02T10:15:48.139Z,3.90
2018-06-02T10:18:14.480Z,3.77
2018-06-02T10:20:40.718Z,3.73
2018-06-02T10:23:07.021Z,3.40
2018-06-02T10:25:33.267Z,3.53
2018-06-02T10:27:59.554Z,3.43
2018-06-02T10:30:26.158Z,3.87
2018-06-02T10:32:52.459Z,3.90
2018-06-02T10:35:18.790Z,4.17
2018-06-02T10:37:45.143Z,4.03
2018-06-02T10:40:11.512Z,3.40
2018-06-02T10:42:38.670Z,3.90
2018-06-02T10:45:05.780Z,3.80
2018-06-02T10:47:32.097Z,3.63
2018-06-02T10:49:58.402Z,4.43
2018-06-02T10:52:24.653Z,4.00
2018-06-02T10:54:50.986Z,4.30
2018-06-02T10:57:17.271Z,4.37
2018-06-02T10:59:43.570Z,4.80
2018-06-02T11:02:09.937Z,4.23
2018-06-02T11:04:36.214Z,3.73
2018-06-02T11:07:02.536Z,4.10
2018-06-02T11:09:28.818Z,3.50
2018-06-02T11:11:55.528Z,4.97
2018-06-02T11:14:21.842Z,4.10
2018-06-02T11:16:48.176Z,8.33
2018-06-02T11:19:14.456Z,4.00
2018-06-02T11:21:40.761Z,6.00
2018-06-02T11:24:07.026Z,6.17
2018-06-02T11:26:34.030Z,4.43
2018-06-02T11:29:00.328Z,4.00
2018-06-02T11:31:27.055Z,3.97
2018-06-02T11:33:53.858Z,4.63
2018-06-02T11:36:20.150Z,4.67
2018-06-02T11:38:46.562Z,5.00
2018-06-02T11:41:12.999Z,5.90
2018-06-02T11:43:39.309Z,4.40
2018-06-02T11:46:06.339Z,4.83
2018-06-02T11:48:32.619Z,10.60
2018-06-02T11:50:59.646Z,4.43
2018-06-02T11:53:25.937Z,3.87
2018-06-02T11:55:52.286Z,6.53
2018-06-02T11:58:18.581Z,5.63
2018-06-02T12:00:44.855Z,6.10
2018-06-02T12:03:11.200Z,5.70
2018-06-02T12:05:37.824Z,4.30
2018-06-02T12:08:05.255Z,4.60
2018-06-02T12:10:31.636Z,4.40
2018-06-02T12:12:58.387Z,4.83
2018-06-02T12:15:24.724Z,4.87
2018-06-02T12:17:51.291Z,4.97
2018-06-02T12:20:18.181Z,4.97
2018-06-02T12:22:44.637Z,6.07
2018-06-02T12:25:12.580Z,5.03
2018-06-02T12:27:39.707Z,4.23
2018-06-02T12:30:06.108Z,6.47
2018-06-02T12:32:32.455Z,4.20
2018-06-02T12:34:58.824Z,4.47
2018-06-02T12:37:25.086Z,5.30
2018-06-02T12:39:51.425Z,4.30
2018-06-02T12:42:18.929Z,4.23
2018-06-02T12:44:45.280Z,4.10
2018-06-02T12:47:12.456Z,5.03
2018-06-02T12:49:38.786Z,4.83
2018-06-02T12:52:05.847Z,4.63
2018-06-02T12:54:33.039Z,4.63
2018-06-02T12:56:59.680Z,4.33
2018-06-02T12:59:26.201Z,4.17
2018-06-02T13:01:53.225Z,4.10
2018-06-02T13:04:21.676Z,6.00
2018-06-02T13:06:48.718Z,4.20
2018-06-02T13:09:15.040Z,4.37
2018-06-02T13:11:41.368Z,8.27
2018-06-02T13:14:07.682Z,3.93
2018-06-02T13:16:34.099Z,3.60
2018-06-02T13:19:01.186Z,5.47
2018-06-02T13:21:27.489Z,3.90
2018-06-02T13:23:54.520Z,4.73
2018-06-02T13:26:20.787Z,3.83
2018-06-02T13:28:48.261Z,4.00
2018-06-02T13:31:15.254Z,4.60
2018-06-02T13:33:41.557Z,4.67
2018-06-02T13:36:08.656Z,3.70
2018-06-02T13:38:34.913Z,7.83
2018-06-02T13:41:01.178Z,4.80
2018-06-02T13:43:27.566Z,4.40
2018-06-02T13:45:53.868Z,5.27
2018-06-02T13:48:20.208Z,4.40
2018-06-02T13:50:46.494Z,3.60
2018-06-02T13:53:13.562Z,4.37
2018-06-02T13:55:39.822Z,4.10
2018-06-02T13:58:06.129Z,3.80
2018-06-02T14:00:33.235Z,4.53
2018-06-02T14:02:59.547Z,8.77
2018-06-02T14:05:25.873Z,5.40
2018-06-02T14:07:53.002Z,4.23
2018-06-02T14:10:19.291Z,4.47
2018-06-02T14:12:46.362Z,4.10
2018-06-02T14:15:12.735Z,4.90
2018-06-02T14:17:39.067Z,4.50
2018-06-02T14:20:05.320Z,3.53
2018-06-02T14:22:31.641Z,4.47
2018-06-02T14:24:57.942Z,3.83
2018-06-02T14:27:25.008Z,4.10
2018-06-02T14:29:51.353Z,5.00
2018-06-02T14:32:17.688Z,5.43
2018-06-02T14:34:44.006Z,4.27
2018-06-02T14:37:10.292Z,4.00
2018-06-02T14:39:37.332Z,4.80
2018-06-02T14:42:03.618Z,3.90
2018-06-02T14:44:29.873Z,4.00
2018-06-02T14:46:56.246Z,3.63
2018-06-02T14:49:22.528Z,3.70
2018-06-02T14:51:49.098Z,3.23
2018-06-02T14:54:15.377Z,3.50
2018-06-02T14:56:43.123Z,3.63
2018-06-02T14:59:09.552Z,5.10
2018-06-02T15:01:36.312Z,3.80
2018-06-02T15:04:02.809Z,3.97
2018-06-02T15:06:29.312Z,3.83
2018-06-02T15:08:55.625Z,3.70
2018-06-02T15:11:22.596Z,3.40
2018-06-02T15:13:50.122Z,3.80
2018-06-02T15:16:16.450Z,4.13
2018-06-02T15:18:42.744Z,3.80
2018-06-02T15:21:09.770Z,3.73
2018-06-02T15:23:36.079Z,3.83
2018-06-02T15:26:02.570Z,4.10
2018-06-02T15:28:28.993Z,4.67
2018-06-02T15:30:55.269Z,4.20
2018-06-02T15:33:22.279Z,4.17
2018-06-02T15:35:49.763Z,4.37
2018-06-02T15:38:16.028Z,4.77
2018-06-02T15:40:43.014Z,4.50
2018-06-02T15:43:09.270Z,5.07
2018-06-02T15:45:35.569Z,4.73
2018-06-02T15:48:01.902Z,4.33
2018-06-02T15:50:28.297Z,4.43
2018-06-02T15:52:54.841Z,5.03
2018-06-02T15:55:21.162Z,4.60
2018-06-02T15:57:51.609Z,5.80
2018-06-02T16:00:19.469Z,4.53
2018-06-02T16:02:46.439Z,5.10
2018-06-02T16:05:13.824Z,4.63
2018-06-02T16:07:40.079Z,4.70
2018-06-02T16:10:06.392Z,4.97
2018-06-02T16:12:33.471Z,4.97
2018-06-02T16:14:59.829Z,5.13
2018-06-02T16:17:26.430Z,4.70
2018-06-02T16:19:52.903Z,5.30
2018-06-02T16:22:19.523Z,6.57
2018-06-02T16:24:46.641Z,4.70
2018-06-02T16:27:12.979Z,5.70
2018-06-02T16:29:39.246Z,6.00
2018-06-02T16:32:06.335Z,5.07
2018-06-02T16:34:33.337Z,5.83
2018-06-02T16:36:59.649Z,5.00
2018-06-02T16:39:26.727Z,5.50
2018-06-02T16:41:53.769Z,4.80
2018-06-02T16:44:20.034Z,5.10
2018-06-02T16:46:46.383Z,5.40
2018-06-02T16:49:12.676Z,5.43
2018-06-02T16:51:38.946Z,4.90
2018-06-02T16:54:05.955Z,4.80
2018-06-02T16:56:32.246Z,4.73
2018-06-02T16:58:59.292Z,4.97
2018-06-02T17:01:25.630Z,4.90
2018-06-02T17:03:51.940Z,5.40
2018-06-02T17:06:18.334Z,4.73
2018-06-02T17:08:44.586Z,4.50
2018-06-02T17:11:11.600Z,4.93
2018-06-02T17:13:37.965Z,4.47
2018-06-02T17:16:04.253Z,4.70
2018-06-02T17:18:30.615Z,4.60
2018-06-02T17:20:56.985Z,4.30
2018-06-02T17:23:23.394Z,5.40
2018-06-02T17:25:49.808Z,4.10
2018-06-02T17:28:16.176Z,4.33
2018-06-02T17:30:42.582Z,4.40
2018-06-02T17:33:09.588Z,4.80
2018-06-02T17:35:35.865Z,4.57
2018-06-02T17:38:02.158Z,5.23
2018-06-02T17:40:28.420Z,4.60
2018-06-02T17:42:54.763Z,4.50
2018-06-02T17:45:21.230Z,4.63
2018-06-02T17:47:47.502Z,5.60
2018-06-02T17:50:13.851Z,4.97
2018-06-02T17:52:40.941Z,5.13
2018-06-02T17:55:07.213Z,4.53
2018-06-02T17:57:33.811Z,5.07
2018-06-02T18:00:00.991Z,5.03
2018-06-02T18:02:27.752Z,4.70
2018-06-02T18:04:55.300Z,5.43
2018-06-02T18:07:22.251Z,5.20
2018-06-02T18:09:49.935Z,5.20
2018-06-02T18:12:16.850Z,5.10
2018-06-02T18:14:45.550Z,5.40
2018-06-02T18:17:13.911Z,5.60
2018-06-02T18:19:40.312Z,5.70
2018-06-02T18:22:07.414Z,5.83
2018-06-02T18:24:40.509Z,5.33
2018-06-02T18:27:06.881Z,5.40
2018-06-02T18:29:33.785Z,5.90
2018-06-02T18:32:00.910Z,5.83
2018-06-02T18:34:27.314Z,5.47
2018-06-02T18:36:53.691Z,5.77
2018-06-02T18:39:20.636Z,6.10
2018-06-02T18:41:47.251Z,6.07
2018-06-02T18:44:14.437Z,5.93
2018-06-02T18:46:41.049Z,6.50
2018-06-02T18:49:07.412Z,5.90
2018-06-02T18:51:33.814Z,6.40
2018-06-02T18:54:02.393Z,6.10
2018-06-02T18:56:29.028Z,6.40
2018-06-02T18:58:55.448Z,6.30
2018-06-02T19:01:22.092Z,6.80
2018-06-02T19:03:48.842Z,6.73
2018-06-02T19:06:15.697Z,6.63
2018-06-02T19:08:42.111Z,6.17
2018-06-02T19:13:40.291Z,8.53
2018-06-02T19:16:06.540Z,7.87
2018-06-02T19:18:32.719Z,7.53
2018-06-02T19:20:58.957Z,7.93
2018-06-02T19:23:28.259Z,7.80
2018-06-02T19:25:54.733Z,11.40
2018-06-02T19:28:21.876Z,10.90
2018-06-02T19:30:48.974Z,9.50
2018-06-02T19:33:15.268Z,7.37
2018-06-02T19:35:41.561Z,7.50
2018-06-02T19:38:07.866Z,8.23
2018-06-02T19:40:40.544Z,7.90
2018-06-02T19:43:07.010Z,8.30
2018-06-02T19:45:33.282Z,8.70
2018-06-02T19:48:00.299Z,8.67
2018-06-02T19:50:26.618Z,8.70
2018-06-02T19:52:52.874Z,8.27
2018-06-02T19:55:19.587Z,8.43
2018-06-02T19:57:45.889Z,8.20
2018-06-02T20:00:13.655Z,7.83
2018-06-02T20:02:39.946Z,8.63
2018-06-02T20:05:06.281Z,9.67
2018-06-02T20:07:32.580Z,9.53
2018-06-02T20:09:58.860Z,10.07
2018-06-02T20:12:25.296Z,9.90
2018-06-02T20:14:51.887Z,10.03
2018-06-02T20:17:18.341Z,9.60
2018-06-02T20:20:27.394Z,10.40
2018-06-02T20:22:55.078Z,11.20
2018-06-02T20:25:22.816Z,11.30
2018-06-02T20:27:50.556Z,11.20
2018-06-02T20:30:18.243Z,10.23
2018-06-02T20:32:45.957Z,9.50
2018-06-02T20:35:13.901Z,9.97
2018-06-02T20:37:41.657Z,9.33
2018-06-02T20:40:09.574Z,9.50
2018-06-02T20:42:37.311Z,9.97
2018-06-02T20:45:10.687Z,16.50
2018-06-02T20:47:38.446Z,30.80
2018-06-02T20:50:06.376Z,10.63
2018-06-02T20:52:34.302Z,9.10
2018-06-02T20:55:02.343Z,8.10
2018-06-02T20:57:30.373Z,8.10
2018-06-02T20:59:58.831Z,8.10
2018-06-02T21:02:26.713Z,7.80
2018-06-02T21:04:54.432Z,8.27
2018-06-02T21:07:22.380Z,7.17
2018-06-02T21:09:50.383Z,10.10
2018-06-02T21:12:18.327Z,9.17
2018-06-02T21:14:46.244Z,11.07
2018-06-02T21:17:14.251Z,10.20
2018-06-02T21:19:42.177Z,10.53
2018-06-02T21:22:09.991Z,9.57
2018-06-02T21:24:37.884Z,11.10
2018-06-02T21:27:05.731Z,10.30
2018-06-02T21:29:33.695Z,11.27
2018-06-02T21:32:01.508Z,9.60
2018-06-02T21:34:29.437Z,9.93
2018-06-02T21:36:57.362Z,9.77
2018-06-02T21:39:25.257Z,9.47
2018-06-02T21:41:53.095Z,9.97
2018-06-02T21:44:20.879Z,9.20
2018-06-02T21:46:48.737Z,8.03
2018-06-02T21:49:16.717Z,10.00
2018-06-02T21:51:44.602Z,8.97
2018-06-02T21:54:12.464Z,11.10
2018-06-02T21:56:40.338Z,10.10
2018-06-02T21:59:08.199Z,8.80
2018-06-02T22:01:36.091Z,9.17
2018-06-02T22:04:04.160Z,8.57
2018-06-02T22:06:32.862Z,8.00
2018-06-02T22:09:00.951Z,8.00
2018-06-02T22:11:29.054Z,8.30
2018-06-02T22:13:57.021Z,9.40
2018-06-02T22:16:25.045Z,9.30
2018-06-02T22:18:52.919Z,8.70
2018-06-02T22:21:20.895Z,8.63
2018-06-02T22:23:48.862Z,9.10
2018-06-02T22:26:16.751Z,9.20
2018-06-02T22:28:44.643Z,8.63
2018-06-02T22:31:12.709Z,9.03
2018-06-02T22:33:40.578Z,8.57
2018-06-02T22:36:08.504Z,9.67
2018-06-02T22:38:36.437Z,9.20
2018-06-02T22:41:04.401Z,9.70
2018-06-02T22:43:32.740Z,9.90
2018-06-02T22:46:00.689Z,9.40
2018-06-02T22:48:28.680Z,9.63
2018-06-02T22:50:56.672Z,8.93
2018-06-02T22:53:24.746Z,8.70
2018-06-02T22:55:52.761Z,9.90
2018-06-02T22:58:20.701Z,8.67
2018-06-02T23:00:48.585Z,9.00
2018-06-02T23:03:16.613Z,10.13
2018-06-02T23:05:44.669Z,8.80
2018-06-02T23:08:12.644Z,9.97
2018-06-02T23:10:40.527Z,9.63
2018-06-02T23:13:08.581Z,10.30
2018-06-02T23:15:36.564Z,10.13
2018-06-02T23:18:04.522Z,9.97
2018-06-02T23:20:32.467Z,9.57
2018-06-02T23:23:00.360Z,9.53
2018-06-02T23:25:28.222Z,9.77
2018-06-02T23:27:56.060Z,7.97
2018-06-02T23:30:23.991Z,9.00
2018-06-02T23:32:51.843Z,9.10
2018-06-02T23:35:19.826Z,9.70
2018-06-02T23:37:49.210Z,8.77
2018-06-02T23:40:16.991Z,8.73
2018-06-02T23:42:44.893Z,8.60
2018-06-02T23:45:12.774Z,8.70
2018-06-02T23:47:40.845Z,9.53
2018-06-02T23:50:08.664Z,9.70
2018-06-02T23:52:36.528Z,8.93
2018-06-02T23:55:04.382Z,9.70
2018-06-02T23:57:32.273Z,8.60
